createdAt,value
2022-09-27T00:02:43.125Z,1.00
2022-09-27T00:06:45.031Z,1.20
2022-09-27T00:10:49.473Z,0.70
2022-09-27T00:14:51.240Z,0.80
2022-09-27T00:18:53.133Z,1.03
2022-09-27T00:22:54.922Z,0.90
2022-09-27T00:26:56.764Z,0.87
2022-09-27T00:30:59.710Z,0.77
2022-09-27T00:35:01.697Z,0.80
2022-09-27T00:39:03.619Z,1.10
2022-09-27T00:43:20.699Z,0.80
2022-09-27T00:47:29.716Z,1.00
2022-09-27T00:51:32.019Z,1.00
2022-09-27T00:55:46.771Z,0.83
2022-09-27T00:59:52.689Z,1.00
2022-09-27T01:04:09.146Z,1.10
2022-09-27T01:08:11.017Z,1.07
2022-09-27T01:12:37.051Z,1.10
2022-09-27T01:16:49.281Z,0.90
2022-09-27T01:21:39.144Z,1.20
2022-09-27T01:25:59.983Z,1.20
2022-09-27T01:30:19.206Z,1.10
2022-09-27T01:34:38.634Z,1.47
2022-09-27T01:39:11.380Z,1.20
2022-09-27T01:43:40.160Z,1.20
2022-09-27T01:47:45.887Z,1.13
2022-09-27T01:51:52.449Z,1.20
2022-09-27T01:55:54.230Z,1.00
2022-09-27T02:00:02.824Z,1.20
2022-09-27T02:04:11.136Z,1.33
2022-09-27T02:08:33.005Z,1.53
2022-09-27T02:12:47.106Z,1.50
2022-09-27T02:17:18.118Z,1.30
2022-09-27T02:21:26.114Z,1.43
2022-09-27T02:25:46.092Z,1.80
2022-09-27T02:29:54.522Z,2.07
2022-09-27T02:34:01.016Z,2.13
2022-09-27T02:38:04.053Z,1.60
2022-09-27T02:42:05.842Z,1.73
2022-09-27T02:46:57.105Z,2.20
2022-09-27T02:51:26.830Z,2.27
2022-09-27T02:56:03.879Z,2.40
2022-09-27T03:00:20.068Z,2.37
2022-09-27T03:04:30.606Z,2.60
2022-09-27T03:08:32.334Z,3.20
2022-09-27T03:12:34.354Z,4.00
2022-09-27T03:16:36.319Z,4.60
2022-09-27T03:20:38.102Z,4.70
2022-09-27T03:24:40.010Z,4.70
2022-09-27T03:28:41.944Z,4.60
2022-09-27T03:32:44.545Z,4.83
2022-09-27T03:36:46.560Z,4.80
2022-09-27T03:40:48.396Z,4.87
2022-09-27T03:44:51.394Z,4.43
2022-09-27T03:48:53.367Z,4.80
2022-09-27T03:52:55.245Z,4.93
2022-09-27T03:56:56.968Z,5.00
2022-09-27T04:00:58.746Z,4.60
2022-09-27T04:05:00.750Z,4.57
2022-09-27T04:09:03.262Z,4.40
2022-09-27T04:13:10.855Z,4.73
2022-09-27T04:17:12.847Z,4.57
2022-09-27T04:21:15.058Z,4.33
2022-09-27T04:25:30.439Z,4.87
2022-09-27T04:29:34.443Z,4.97
2022-09-27T04:33:36.420Z,4.90
2022-09-27T04:37:45.282Z,4.97
2022-09-27T04:42:12.898Z,4.73
2022-09-27T04:46:14.954Z,5.47
2022-09-27T04:50:17.675Z,4.57
2022-09-27T04:54:19.695Z,4.57
2022-09-27T04:58:24.870Z,5.97
2022-09-27T05:02:27.939Z,5.17
2022-09-27T05:06:33.671Z,5.23
2022-09-27T05:10:38.826Z,5.50
2022-09-27T05:16:02.543Z,5.73
2022-09-27T05:26:46.219Z,5.83
2022-09-27T05:30:51.251Z,6.13
2022-09-27T05:35:38.046Z,5.60
2022-09-27T05:40:51.043Z,5.27
2022-09-27T05:45:16.645Z,6.83
2022-09-27T05:49:31.523Z,6.20
2022-09-27T05:53:33.516Z,6.63
2022-09-27T05:57:35.362Z,5.87
2022-09-27T06:01:39.603Z,6.27
2022-09-27T06:11:29.777Z,4.90
2022-09-27T06:15:34.529Z,4.50
2022-09-27T06:19:37.106Z,4.80
2022-09-27T06:23:38.937Z,4.70
2022-09-27T06:27:40.800Z,5.40
2022-09-27T06:31:45.448Z,4.90
2022-09-27T06:35:49.423Z,4.80
2022-09-27T06:39:53.099Z,4.90
2022-09-27T06:44:06.944Z,3.67
2022-09-27T06:48:10.945Z,4.40
2022-09-27T06:52:12.776Z,4.70
2022-09-27T06:56:14.695Z,5.30
2022-09-27T07:00:26.968Z,5.50
2022-09-27T07:04:29.029Z,4.80
2022-09-27T07:08:35.597Z,4.23
2022-09-27T07:12:57.412Z,3.77
2022-09-27T07:17:03.810Z,3.30
2022-09-27T07:21:05.938Z,3.07
2022-09-27T08:04:33.366Z,1.00
2022-09-27T08:14:23.543Z,1.20
2022-09-27T08:18:25.465Z,1.00
2022-09-27T08:22:27.467Z,0.73
2022-09-27T08:26:29.466Z,0.57
2022-09-27T08:30:32.539Z,0.80
2022-09-27T08:34:34.976Z,0.40
2022-09-27T08:38:59.413Z,0.40
2022-09-27T08:43:15.160Z,0.47
2022-09-27T08:47:49.006Z,0.33
2022-09-27T08:52:11.725Z,0.60
2022-09-27T08:56:27.531Z,0.40
2022-09-27T09:01:23.892Z,0.40
2022-09-27T09:05:54.181Z,0.40
2022-09-27T09:16:01.146Z,0.50
2022-09-27T09:27:43.206Z,0.20
2022-09-27T09:32:59.403Z,0.40
2022-09-27T09:38:04.765Z,0.10
2022-09-27T09:42:54.891Z,0.30
2022-09-27T09:47:26.427Z,0.30
2022-09-27T10:14:09.567Z,0.40
2022-09-27T10:35:09.150Z,0.20
2022-09-27T10:51:49.849Z,0.10
2022-09-27T11:01:16.269Z,0.13
2022-09-27T11:05:40.224Z,0.27
2022-09-27T11:14:58.782Z,0.57
2022-09-27T11:30:21.538Z,0.37
2022-09-27T12:05:04.632Z,0.30
2022-09-27T12:10:49.222Z,0.20
2022-09-27T12:27:14.901Z,0.20
2022-09-27T12:31:46.905Z,0.40
2022-09-27T12:36:13.701Z,0.30
2022-09-27T12:40:26.914Z,0.30
2022-09-27T12:44:31.668Z,0.20
2022-09-27T12:49:01.140Z,0.10
2022-09-27T12:53:32.311Z,0.23
2022-09-27T12:58:29.373Z,0.30
2022-09-27T13:03:14.832Z,0.30
2022-09-27T13:07:31.189Z,0.60
2022-09-27T13:23:23.584Z,0.43
2022-09-27T13:47:45.181Z,0.53
2022-09-27T13:51:53.340Z,0.40
2022-09-27T13:56:05.023Z,0.40
2022-09-27T14:00:34.429Z,0.50
2022-09-27T14:04:53.457Z,0.60
2022-09-27T14:09:00.443Z,0.43
2022-09-27T14:13:03.580Z,0.47
2022-09-27T14:17:16.366Z,0.60
2022-09-27T14:21:31.243Z,0.47
2022-09-27T14:30:23.437Z,0.70
2022-09-27T14:34:28.309Z,0.47
2022-09-27T14:38:37.980Z,0.50
2022-09-27T14:42:41.431Z,0.40
2022-09-27T14:46:45.903Z,0.30
2022-09-27T14:51:14.048Z,0.40
2022-09-27T14:55:26.723Z,0.60
2022-09-27T14:59:37.912Z,0.47
2022-09-27T15:03:44.184Z,0.40
2022-09-27T15:07:47.078Z,0.53
2022-09-27T15:11:54.522Z,0.60
2022-09-27T15:15:56.460Z,0.77
2022-09-27T15:20:34.694Z,0.70
2022-09-27T15:24:44.194Z,0.73
2022-09-27T15:28:50.899Z,0.50
2022-09-27T15:32:57.920Z,0.73
2022-09-27T15:37:03.688Z,0.60
2022-09-27T15:41:13.793Z,0.70
2022-09-27T15:45:33.841Z,0.87
2022-09-27T15:49:35.903Z,0.83
2022-09-27T15:53:50.289Z,0.83
2022-09-27T15:57:59.317Z,0.80
2022-09-27T16:02:27.340Z,0.97
2022-09-27T16:06:30.932Z,0.83
2022-09-27T16:10:46.677Z,0.70
2022-09-27T16:14:48.569Z,0.70
2022-09-27T16:18:50.449Z,0.90
2022-09-27T16:22:55.985Z,1.43
2022-09-27T16:27:32.640Z,0.87
2022-09-27T16:31:32.668Z,0.70
2022-09-27T16:35:34.824Z,0.60
2022-09-27T16:39:44.009Z,0.60
2022-09-27T17:30:49.827Z,1.00
2022-09-27T17:34:52.395Z,1.10
2022-09-27T17:38:58.572Z,1.20
2022-09-27T17:43:18.585Z,1.10
2022-09-27T17:47:58.873Z,1.10
2022-09-27T18:17:58.008Z,1.40
2022-09-27T18:22:10.121Z,1.40
2022-09-27T18:26:17.194Z,2.20
2022-09-27T18:30:22.086Z,1.70
2022-09-27T18:34:46.361Z,1.20
2022-09-27T18:39:03.580Z,1.00
2022-09-27T18:43:14.027Z,0.90
2022-09-27T18:47:23.866Z,0.90
2022-09-27T18:51:43.679Z,0.70
2022-09-27T18:56:10.571Z,1.00
2022-09-27T19:00:14.030Z,0.87
2022-09-27T19:04:28.253Z,1.13
2022-09-27T19:08:40.566Z,0.93
2022-09-27T19:12:45.926Z,1.03
2022-09-27T19:16:48.361Z,0.77
2022-09-27T19:20:57.193Z,1.20
2022-09-27T19:25:02.409Z,0.83
2022-09-27T19:29:06.615Z,1.00
2022-09-27T19:33:10.955Z,1.00
2022-09-27T19:37:15.515Z,0.90
2022-09-27T19:41:17.672Z,0.73
2022-09-27T19:45:43.827Z,1.20
2022-09-27T19:49:51.854Z,1.00
2022-09-27T19:53:54.081Z,1.00
2022-09-27T19:57:58.985Z,0.90
2022-09-27T20:02:08.592Z,0.90
2022-09-27T20:06:13.027Z,0.90
2022-09-27T20:10:15.085Z,1.20
2022-09-27T20:14:17.001Z,1.10
2022-09-27T20:18:18.704Z,0.70
2022-09-27T20:22:20.489Z,0.90
2022-09-27T20:26:23.943Z,0.70
2022-09-27T20:30:25.744Z,0.80
2022-09-27T20:34:27.616Z,0.70
2022-09-27T20:38:29.374Z,0.90
2022-09-27T20:42:31.147Z,1.00
2022-09-27T20:46:33.553Z,1.10
2022-09-27T20:50:35.373Z,1.00
2022-09-27T20:54:37.276Z,1.10
2022-09-27T20:58:39.106Z,1.20
2022-09-27T21:02:47.042Z,1.10
2022-09-27T21:06:48.882Z,0.87
2022-09-27T21:10:52.863Z,1.20
2022-09-27T21:14:54.854Z,1.50
2022-09-27T21:18:57.395Z,1.40
2022-09-27T21:22:59.116Z,1.60
2022-09-27T21:27:00.936Z,2.00
2022-09-27T21:31:09.227Z,1.33
2022-09-27T21:35:11.129Z,1.17
2022-09-27T21:39:15.357Z,0.97
2022-09-27T21:43:17.102Z,1.00
2022-09-27T21:47:18.871Z,1.20
2022-09-27T21:51:26.071Z,1.20
2022-09-27T21:55:28.904Z,1.20
2022-09-27T21:59:30.690Z,1.20
2022-09-27T22:03:36.244Z,1.03
2022-09-27T22:07:39.273Z,1.10
2022-09-27T22:11:44.725Z,1.30
2022-09-27T22:15:46.623Z,0.77
2022-09-27T22:19:48.360Z,1.20
2022-09-27T22:24:05.157Z,1.10
2022-09-27T22:28:09.295Z,1.30
2022-09-27T22:32:11.515Z,1.30
2022-09-27T22:36:13.217Z,1.40
2022-09-27T22:40:15.139Z,1.23
2022-09-27T22:44:17.245Z,1.10
2022-09-27T22:48:19.105Z,1.13
2022-09-27T22:52:21.374Z,1.50
2022-09-27T22:56:23.155Z,1.40
2022-09-27T23:00:25.146Z,1.40
2022-09-27T23:04:26.913Z,1.30
2022-09-27T23:08:28.764Z,1.07
2022-09-27T23:12:31.145Z,0.80
2022-09-27T23:16:33.691Z,0.93
2022-09-27T23:20:35.600Z,0.83
2022-09-27T23:24:37.363Z,0.90
2022-09-27T23:28:39.229Z,0.73
2022-09-27T23:32:46.019Z,0.70
2022-09-27T23:36:47.891Z,0.97
2022-09-27T23:40:49.818Z,0.90
2022-09-27T23:44:52.941Z,1.60
2022-09-27T23:48:54.861Z,0.77
2022-09-27T23:52:56.621Z,0.70
2022-09-27T23:56:58.791Z,0.90
